Buckland Information

FAA: BVK - ICAO: PABL

Buckland (Airport) Location

State Alaska
County Northwest Arctic
City Buckland
Buckland (Airport) is 1 mile southwest of Buckland, AK.
Latitude 65-58-53.6000N
Longitude 161-08-56.9000W
Elevation 29ft

Buckland METARs

METAR PABL 190856Z AUTO 12005KT 10SM CLR 01/M02 A3029 RMK AO2 SLP259 T00061017 51026 FZRANO
Altimeter 30.29"
Temperature 0.6°C (33.1°F)
Wind 120° at 5KT
Clouds Skies are clear.
Visibility 10.0mi
Time observed: 2022-05-19T08:56:00Z

Buckland (Airport) Details

Status Operational
Activation N/A
Ownership Public
Usage Public
Chart NOME
ATC on-site No
Beacon schedule sunset-sunrise
Beacon color clear green

Buckland (Airport) Contacts

Owner ALASKA DOT&PF NORTHERN REGION
Owner address 2301 PEGER ROAD, FAIRBANKS, AK 99701
Owner phone 907-451-2200
Manager ROBERT HUTCHISON
Manager address 18302 W JENNY LANE, BIG LAKE, AK 99652
Manager phone (907) 892-4523

Buckland Radio Frequencies

Buckland (Airport) Radio Frequencies

UNICOM N/A
Common traffic advisory frequency (CTAF) 122.9